sensor_id;sensor_type;location;lat;lon;timestamp;P1;durP1;ratioP1;P2;durP2;ratioP2
49978;SDS011;35869;50.990;6.962;2024-03-02T00:02:57;2.35;;;1.60;;
49978;SDS011;35869;50.990;6.962;2024-03-02T00:07:57;1.90;;;1.40;;
49978;SDS011;35869;50.990;6.962;2024-03-02T00:12:58;2.47;;;1.40;;
49978;SDS011;35869;50.990;6.962;2024-03-02T00:17:59;1.70;;;1.60;;
49978;SDS011;35869;50.990;6.962;2024-03-02T00:23:06;2.85;;;1.80;;
49978;SDS011;35869;50.990;6.962;2024-03-02T00:28:17;3.20;;;1.70;;
49978;SDS011;35869;50.990;6.962;2024-03-02T00:33:33;1.52;;;1.42;;
49978;SDS011;35869;50.990;6.962;2024-03-02T00:38:55;1.75;;;1.30;;
49978;SDS011;35869;50.990;6.962;2024-03-02T00:43:58;1.55;;;1.33;;
49978;SDS011;35869;50.990;6.962;2024-03-02T00:49:02;2.13;;;1.33;;
49978;SDS011;35869;50.990;6.962;2024-03-02T00:54:07;2.80;;;1.48;;
49978;SDS011;35869;50.990;6.962;2024-03-02T00:59:09;2.58;;;1.63;;
49978;SDS011;35869;50.990;6.962;2024-03-02T01:04:10;3.70;;;1.35;;
49978;SDS011;35869;50.990;6.962;2024-03-02T01:09:10;1.77;;;1.30;;
49978;SDS011;35869;50.990;6.962;2024-03-02T01:14:10;1.40;;;1.30;;
49978;SDS011;35869;50.990;6.962;2024-03-02T01:19:11;2.08;;;1.27;;
49978;SDS011;35869;50.990;6.962;2024-03-02T01:24:11;2.08;;;1.67;;
49978;SDS011;35869;50.990;6.962;2024-03-02T01:29:11;1.90;;;1.45;;
49978;SDS011;35869;50.990;6.962;2024-03-02T01:34:12;1.65;;;1.42;;
49978;SDS011;35869;50.990;6.962;2024-03-02T01:39:12;1.70;;;1.30;;
49978;SDS011;35869;50.990;6.962;2024-03-02T01:44:12;3.20;;;1.40;;
49978;SDS011;35869;50.990;6.962;2024-03-02T01:49:15;2.53;;;1.30;;
49978;SDS011;35869;50.990;6.962;2024-03-02T01:54:19;2.58;;;1.05;;
49978;SDS011;35869;50.990;6.962;2024-03-02T01:59:21;2.45;;;1.25;;
49978;SDS011;35869;50.990;6.962;2024-03-02T02:04:22;3.13;;;1.58;;
49978;SDS011;35869;50.990;6.962;2024-03-02T02:09:27;1.27;;;1.10;;
49978;SDS011;35869;50.990;6.962;2024-03-02T02:14:28;2.47;;;1.10;;
49978;SDS011;35869;50.990;6.962;2024-03-02T02:19:28;1.50;;;1.10;;
49978;SDS011;35869;50.990;6.962;2024-03-02T02:24:28;1.37;;;1.27;;
49978;SDS011;35869;50.990;6.962;2024-03-02T02:29:29;2.38;;;1.23;;
49978;SDS011;35869;50.990;6.962;2024-03-02T02:34:34;1.63;;;1.30;;
49978;SDS011;35869;50.990;6.962;2024-03-02T02:39:40;2.60;;;1.00;;
49978;SDS011;35869;50.990;6.962;2024-03-02T02:44:43;2.03;;;1.23;;
49978;SDS011;35869;50.990;6.962;2024-03-02T02:49:46;2.60;;;1.20;;
49978;SDS011;35869;50.990;6.962;2024-03-02T03:00:19;2.28;;;1.10;;
49978;SDS011;35869;50.990;6.962;2024-03-02T03:10:44;1.63;;;1.20;;
49978;SDS011;35869;50.990;6.962;2024-03-02T03:15:47;1.83;;;1.33;;
49978;SDS011;35869;50.990;6.962;2024-03-02T03:20:47;1.48;;;1.05;;
49978;SDS011;35869;50.990;6.962;2024-03-02T03:25:48;2.05;;;1.10;;
49978;SDS011;35869;50.990;6.962;2024-03-02T03:30:48;2.70;;;1.20;;
49978;SDS011;35869;50.990;6.962;2024-03-02T03:35:48;2.30;;;1.17;;
49978;SDS011;35869;50.990;6.962;2024-03-02T03:40:48;1.45;;;1.10;;
49978;SDS011;35869;50.990;6.962;2024-03-02T03:45:48;2.08;;;1.48;;
49978;SDS011;35869;50.990;6.962;2024-03-02T03:50:49;1.02;;;0.90;;
49978;SDS011;35869;50.990;6.962;2024-03-02T03:55:49;2.30;;;1.00;;
49978;SDS011;35869;50.990;6.962;2024-03-02T04:00:49;1.90;;;1.38;;
49978;SDS011;35869;50.990;6.962;2024-03-02T04:05:49;2.25;;;1.20;;
49978;SDS011;35869;50.990;6.962;2024-03-02T04:10:49;1.95;;;1.27;;
49978;SDS011;35869;50.990;6.962;2024-03-02T04:15:50;1.48;;;1.27;;
49978;SDS011;35869;50.990;6.962;2024-03-02T04:20:50;2.13;;;1.20;;
49978;SDS011;35869;50.990;6.962;2024-03-02T04:25:50;3.38;;;1.10;;
49978;SDS011;35869;50.990;6.962;2024-03-02T04:30:51;1.33;;;1.10;;
49978;SDS011;35869;50.990;6.962;2024-03-02T04:35:51;1.40;;;1.27;;
49978;SDS011;35869;50.990;6.962;2024-03-02T04:40:51;1.30;;;1.20;;
49978;SDS011;35869;50.990;6.962;2024-03-02T04:45:51;1.48;;;1.20;;
49978;SDS011;35869;50.990;6.962;2024-03-02T04:50:51;2.38;;;1.15;;
49978;SDS011;35869;50.990;6.962;2024-03-02T04:55:52;1.55;;;1.45;;
49978;SDS011;35869;50.990;6.962;2024-03-02T05:00:52;2.42;;;1.50;;
49978;SDS011;35869;50.990;6.962;2024-03-02T05:05:52;3.75;;;1.30;;
49978;SDS011;35869;50.990;6.962;2024-03-02T05:10:52;2.25;;;1.20;;
49978;SDS011;35869;50.990;6.962;2024-03-02T05:15:52;2.42;;;1.80;;
49978;SDS011;35869;50.990;6.962;2024-03-02T05:20:53;4.07;;;1.40;;
49978;SDS011;35869;50.990;6.962;2024-03-02T05:25:53;2.25;;;1.60;;
49978;SDS011;35869;50.990;6.962;2024-03-02T05:30:53;2.38;;;1.50;;
49978;SDS011;35869;50.990;6.962;2024-03-02T05:35:53;3.63;;;1.42;;
49978;SDS011;35869;50.990;6.962;2024-03-02T05:40:53;4.35;;;1.80;;
49978;SDS011;35869;50.990;6.962;2024-03-02T05:45:53;2.28;;;1.55;;
49978;SDS011;35869;50.990;6.962;2024-03-02T05:50:54;2.83;;;1.65;;
49978;SDS011;35869;50.990;6.962;2024-03-02T05:55:54;1.90;;;1.70;;
49978;SDS011;35869;50.990;6.962;2024-03-02T06:00:54;3.65;;;2.13;;
49978;SDS011;35869;50.990;6.962;2024-03-02T06:05:54;2.65;;;1.90;;
49978;SDS011;35869;50.990;6.962;2024-03-02T06:10:55;3.10;;;1.93;;
49978;SDS011;35869;50.990;6.962;2024-03-02T06:15:55;2.22;;;1.75;;
49978;SDS011;35869;50.990;6.962;2024-03-02T06:20:55;2.88;;;1.40;;
49978;SDS011;35869;50.990;6.962;2024-03-02T06:25:55;3.22;;;1.85;;
49978;SDS011;35869;50.990;6.962;2024-03-02T06:30:55;2.55;;;2.03;;
49978;SDS011;35869;50.990;6.962;2024-03-02T06:35:56;3.83;;;2.15;;
49978;SDS011;35869;50.990;6.962;2024-03-02T06:40:56;3.25;;;2.17;;
49978;SDS011;35869;50.990;6.962;2024-03-02T06:45:56;3.92;;;2.70;;
49978;SDS011;35869;50.990;6.962;2024-03-02T06:50:56;3.13;;;2.22;;
49978;SDS011;35869;50.990;6.962;2024-03-02T06:55:56;2.78;;;2.15;;
49978;SDS011;35869;50.990;6.962;2024-03-02T07:00:57;3.13;;;2.45;;
49978;SDS011;35869;50.990;6.962;2024-03-02T07:11:07;4.13;;;2.45;;
49978;SDS011;35869;50.990;6.962;2024-03-02T07:16:07;4.07;;;2.33;;
49978;SDS011;35869;50.990;6.962;2024-03-02T07:21:07;2.55;;;2.30;;
49978;SDS011;35869;50.990;6.962;2024-03-02T07:26:07;9.13;;;3.30;;
49978;SDS011;35869;50.990;6.962;2024-03-02T07:31:07;7.22;;;3.08;;
49978;SDS011;35869;50.990;6.962;2024-03-02T07:36:08;4.50;;;2.90;;
49978;SDS011;35869;50.990;6.962;2024-03-02T07:41:08;4.03;;;3.00;;
49978;SDS011;35869;50.990;6.962;2024-03-02T07:46:08;4.70;;;3.13;;
49978;SDS011;35869;50.990;6.962;2024-03-02T07:51:09;5.45;;;2.78;;
49978;SDS011;35869;50.990;6.962;2024-03-02T07:56:09;3.08;;;2.65;;
49978;SDS011;35869;50.990;6.962;2024-03-02T08:01:09;3.00;;;2.40;;
49978;SDS011;35869;50.990;6.962;2024-03-02T08:06:10;4.22;;;3.10;;
49978;SDS011;35869;50.990;6.962;2024-03-02T08:11:10;3.80;;;2.63;;
49978;SDS011;35869;50.990;6.962;2024-03-02T08:16:10;5.55;;;3.10;;
49978;SDS011;35869;50.990;6.962;2024-03-02T08:21:10;4.35;;;2.80;;
49978;SDS011;35869;50.990;6.962;2024-03-02T08:26:11;2.92;;;2.30;;
49978;SDS011;35869;50.990;6.962;2024-03-02T08:31:11;3.20;;;2.90;;
49978;SDS011;35869;50.990;6.962;2024-03-02T08:36:11;3.85;;;2.70;;
49978;SDS011;35869;50.990;6.962;2024-03-02T08:41:12;3.37;;;2.20;;
49978;SDS011;35869;50.990;6.962;2024-03-02T08:46:12;2.58;;;2.38;;
49978;SDS011;35869;50.990;6.962;2024-03-02T08:51:12;2.78;;;1.45;;
49978;SDS011;35869;50.990;6.962;2024-03-02T08:56:13;1.42;;;1.20;;
49978;SDS011;35869;50.990;6.962;2024-03-02T09:01:13;2.50;;;1.75;;
49978;SDS011;35869;50.990;6.962;2024-03-02T09:06:13;4.65;;;2.15;;
49978;SDS011;35869;50.990;6.962;2024-03-02T09:11:13;2.30;;;1.80;;
49978;SDS011;35869;50.990;6.962;2024-03-02T09:16:13;2.20;;;1.58;;
49978;SDS011;35869;50.990;6.962;2024-03-02T09:21:14;2.55;;;1.40;;
49978;SDS011;35869;50.990;6.962;2024-03-02T09:26:14;6.13;;;1.98;;
49978;SDS011;35869;50.990;6.962;2024-03-02T09:31:14;3.13;;;1.90;;
49978;SDS011;35869;50.990;6.962;2024-03-02T09:36:21;3.78;;;1.75;;
49978;SDS011;35869;50.990;6.962;2024-03-02T09:41:22;3.10;;;1.67;;
49978;SDS011;35869;50.990;6.962;2024-03-02T09:46:23;2.42;;;1.27;;
49978;SDS011;35869;50.990;6.962;2024-03-02T09:51:23;9.85;;;2.10;;
49978;SDS011;35869;50.990;6.962;2024-03-02T09:56:23;2.63;;;1.10;;
49978;SDS011;35869;50.990;6.962;2024-03-02T10:01:24;4.70;;;1.93;;
49978;SDS011;35869;50.990;6.962;2024-03-02T10:06:25;1.17;;;0.88;;
49978;SDS011;35869;50.990;6.962;2024-03-02T10:11:27;3.85;;;1.70;;
49978;SDS011;35869;50.990;6.962;2024-03-02T10:16:40;2.17;;;1.48;;
49978;SDS011;35869;50.990;6.962;2024-03-02T10:21:41;3.35;;;1.20;;
49978;SDS011;35869;50.990;6.962;2024-03-02T10:26:42;2.30;;;1.40;;
49978;SDS011;35869;50.990;6.962;2024-03-02T10:31:45;5.45;;;1.30;;
49978;SDS011;35869;50.990;6.962;2024-03-02T10:36:46;2.90;;;1.40;;
49978;SDS011;35869;50.990;6.962;2024-03-02T10:41:47;4.30;;;1.35;;
49978;SDS011;35869;50.990;6.962;2024-03-02T10:46:49;2.30;;;1.30;;
49978;SDS011;35869;50.990;6.962;2024-03-02T10:51:50;3.15;;;1.63;;
49978;SDS011;35869;50.990;6.962;2024-03-02T10:56:50;2.47;;;1.17;;
49978;SDS011;35869;50.990;6.962;2024-03-02T11:01:50;4.38;;;1.50;;
49978;SDS011;35869;50.990;6.962;2024-03-02T11:12:03;3.15;;;1.42;;
49978;SDS011;35869;50.990;6.962;2024-03-02T11:17:39;2.92;;;1.50;;
49978;SDS011;35869;50.990;6.962;2024-03-02T11:22:40;2.45;;;1.00;;
49978;SDS011;35869;50.990;6.962;2024-03-02T11:32:54;1.20;;;0.90;;
49978;SDS011;35869;50.990;6.962;2024-03-02T11:37:55;1.23;;;0.80;;
49978;SDS011;35869;50.990;6.962;2024-03-02T11:48:01;2.33;;;1.15;;
49978;SDS011;35869;50.990;6.962;2024-03-02T11:53:06;2.50;;;1.15;;
49978;SDS011;35869;50.990;6.962;2024-03-02T11:58:07;2.83;;;0.93;;
49978;SDS011;35869;50.990;6.962;2024-03-02T12:03:08;2.60;;;1.10;;
49978;SDS011;35869;50.990;6.962;2024-03-02T12:08:11;1.98;;;1.20;;
49978;SDS011;35869;50.990;6.962;2024-03-02T12:18:12;1.15;;;0.98;;
49978;SDS011;35869;50.990;6.962;2024-03-02T12:23:12;2.95;;;1.13;;
49978;SDS011;35869;50.990;6.962;2024-03-02T12:33:13;1.33;;;1.00;;
49978;SDS011;35869;50.990;6.962;2024-03-02T12:38:14;1.85;;;0.73;;
49978;SDS011;35869;50.990;6.962;2024-03-02T12:48:14;1.63;;;1.10;;
49978;SDS011;35869;50.990;6.962;2024-03-02T12:53:15;1.35;;;0.55;;
49978;SDS011;35869;50.990;6.962;2024-03-02T13:03:17;2.40;;;1.27;;
49978;SDS011;35869;50.990;6.962;2024-03-02T13:08:19;2.53;;;0.95;;
49978;SDS011;35869;50.990;6.962;2024-03-02T13:18:19;1.85;;;0.98;;
49978;SDS011;35869;50.990;6.962;2024-03-02T13:23:20;1.30;;;0.83;;
49978;SDS011;35869;50.990;6.962;2024-03-02T13:28:20;1.13;;;1.02;;
49978;SDS011;35869;50.990;6.962;2024-03-02T13:33:20;4.67;;;1.50;;
49978;SDS011;35869;50.990;6.962;2024-03-02T13:38:20;1.27;;;1.10;;
49978;SDS011;35869;50.990;6.962;2024-03-02T13:43:21;2.10;;;0.93;;
49978;SDS011;35869;50.990;6.962;2024-03-02T13:48:21;1.25;;;1.00;;
49978;SDS011;35869;50.990;6.962;2024-03-02T13:53:21;0.90;;;0.90;;
49978;SDS011;35869;50.990;6.962;2024-03-02T13:58:22;1.50;;;0.70;;
49978;SDS011;35869;50.990;6.962;2024-03-02T14:03:22;1.47;;;0.80;;
49978;SDS011;35869;50.990;6.962;2024-03-02T14:08:23;2.80;;;1.07;;
49978;SDS011;35869;50.990;6.962;2024-03-02T14:13:23;3.22;;;1.45;;
49978;SDS011;35869;50.990;6.962;2024-03-02T14:18:23;3.15;;;1.10;;
49978;SDS011;35869;50.990;6.962;2024-03-02T14:23:23;1.10;;;0.90;;
49978;SDS011;35869;50.990;6.962;2024-03-02T14:28:24;2.63;;;1.20;;
49978;SDS011;35869;50.990;6.962;2024-03-02T14:33:24;2.00;;;0.77;;
49978;SDS011;35869;50.990;6.962;2024-03-02T14:38:24;2.17;;;0.80;;
49978;SDS011;35869;50.990;6.962;2024-03-02T14:43:24;1.37;;;0.90;;
49978;SDS011;35869;50.990;6.962;2024-03-02T14:48:24;3.97;;;0.80;;
49978;SDS011;35869;50.990;6.962;2024-03-02T14:53:28;2.47;;;1.00;;
49978;SDS011;35869;50.990;6.962;2024-03-02T14:58:28;2.92;;;0.85;;
49978;SDS011;35869;50.990;6.962;2024-03-02T15:03:29;1.47;;;1.00;;
49978;SDS011;35869;50.990;6.962;2024-03-02T15:08:29;2.50;;;1.00;;
49978;SDS011;35869;50.990;6.962;2024-03-02T15:13:29;3.97;;;0.98;;
49978;SDS011;35869;50.990;6.962;2024-03-02T15:18:30;0.93;;;0.60;;
49978;SDS011;35869;50.990;6.962;2024-03-02T15:23:30;2.13;;;1.00;;
49978;SDS011;35869;50.990;6.962;2024-03-02T15:28:30;1.80;;;1.20;;
49978;SDS011;35869;50.990;6.962;2024-03-02T15:33:30;3.33;;;0.83;;
49978;SDS011;35869;50.990;6.962;2024-03-02T15:38:31;0.67;;;0.53;;
49978;SDS011;35869;50.990;6.962;2024-03-02T15:43:31;0.90;;;0.80;;
49978;SDS011;35869;50.990;6.962;2024-03-02T15:48:31;1.00;;;0.70;;
49978;SDS011;35869;50.990;6.962;2024-03-02T15:53:31;2.88;;;0.80;;
49978;SDS011;35869;50.990;6.962;2024-03-02T15:58:31;1.33;;;0.60;;
49978;SDS011;35869;50.990;6.962;2024-03-02T16:03:32;2.30;;;0.80;;
49978;SDS011;35869;50.990;6.962;2024-03-02T16:08:32;1.03;;;0.87;;
49978;SDS011;35869;50.990;6.962;2024-03-02T16:13:32;3.47;;;0.73;;
49978;SDS011;35869;50.990;6.962;2024-03-02T16:18:32;1.15;;;0.93;;
49978;SDS011;35869;50.990;6.962;2024-03-02T16:23:32;1.48;;;1.38;;
49978;SDS011;35869;50.990;6.962;2024-03-02T16:28:33;1.25;;;0.70;;
49978;SDS011;35869;50.990;6.962;2024-03-02T16:33:33;1.40;;;0.90;;
49978;SDS011;35869;50.990;6.962;2024-03-02T16:38:33;1.10;;;0.90;;
49978;SDS011;35869;50.990;6.962;2024-03-02T16:43:33;0.73;;;0.50;;
49978;SDS011;35869;50.990;6.962;2024-03-02T16:48:33;3.73;;;0.70;;
49978;SDS011;35869;50.990;6.962;2024-03-02T16:53:34;0.80;;;0.60;;
49978;SDS011;35869;50.990;6.962;2024-03-02T16:58:34;2.47;;;0.90;;
49978;SDS011;35869;50.990;6.962;2024-03-02T17:03:34;1.13;;;0.70;;
49978;SDS011;35869;50.990;6.962;2024-03-02T17:08:34;0.90;;;0.90;;
49978;SDS011;35869;50.990;6.962;2024-03-02T17:13:34;1.63;;;0.80;;
49978;SDS011;35869;50.990;6.962;2024-03-02T17:18:35;0.85;;;0.45;;
49978;SDS011;35869;50.990;6.962;2024-03-02T17:23:35;0.98;;;0.77;;
49978;SDS011;35869;50.990;6.962;2024-03-02T17:28:35;1.27;;;0.90;;
49978;SDS011;35869;50.990;6.962;2024-03-02T17:33:35;0.70;;;0.70;;
49978;SDS011;35869;50.990;6.962;2024-03-02T17:38:36;1.92;;;0.75;;
49978;SDS011;35869;50.990;6.962;2024-03-02T17:43:39;1.07;;;0.87;;
49978;SDS011;35869;50.990;6.962;2024-03-02T17:48:39;1.40;;;1.08;;
49978;SDS011;35869;50.990;6.962;2024-03-02T17:53:39;1.05;;;0.95;;
49978;SDS011;35869;50.990;6.962;2024-03-02T17:58:40;4.03;;;1.55;;
49978;SDS011;35869;50.990;6.962;2024-03-02T18:03:40;3.08;;;1.67;;
49978;SDS011;35869;50.990;6.962;2024-03-02T18:13:41;2.63;;;1.90;;
49978;SDS011;35869;50.990;6.962;2024-03-02T18:18:41;2.70;;;1.30;;
49978;SDS011;35869;50.990;6.962;2024-03-02T18:28:42;2.65;;;1.92;;
49978;SDS011;35869;50.990;6.962;2024-03-02T18:33:42;3.83;;;2.10;;
49978;SDS011;35869;50.990;6.962;2024-03-02T18:38:42;4.18;;;2.22;;
49978;SDS011;35869;50.990;6.962;2024-03-02T18:43:42;2.38;;;1.60;;
49978;SDS011;35869;50.990;6.962;2024-03-02T18:48:42;5.20;;;1.85;;
49978;SDS011;35869;50.990;6.962;2024-03-02T18:53:43;4.38;;;2.60;;
49978;SDS011;35869;50.990;6.962;2024-03-02T18:58:43;1.92;;;1.50;;
49978;SDS011;35869;50.990;6.962;2024-03-02T19:03:43;2.92;;;2.00;;
49978;SDS011;35869;50.990;6.962;2024-03-02T19:08:43;2.22;;;1.20;;
49978;SDS011;35869;50.990;6.962;2024-03-02T19:18:43;4.78;;;1.67;;
49978;SDS011;35869;50.990;6.962;2024-03-02T19:23:44;2.28;;;1.83;;
49978;SDS011;35869;50.990;6.962;2024-03-02T19:28:44;2.30;;;1.70;;
49978;SDS011;35869;50.990;6.962;2024-03-02T19:38:45;2.78;;;2.35;;
49978;SDS011;35869;50.990;6.962;2024-03-02T19:43:45;3.45;;;2.58;;
49978;SDS011;35869;50.990;6.962;2024-03-02T19:53:45;2.38;;;1.90;;
49978;SDS011;35869;50.990;6.962;2024-03-02T19:58:45;1.83;;;1.70;;
49978;SDS011;35869;50.990;6.962;2024-03-02T20:03:46;1.63;;;1.52;;
49978;SDS011;35869;50.990;6.962;2024-03-02T20:08:46;3.08;;;1.95;;
49978;SDS011;35869;50.990;6.962;2024-03-02T20:13:46;2.70;;;1.95;;
49978;SDS011;35869;50.990;6.962;2024-03-02T20:18:46;2.45;;;1.70;;
49978;SDS011;35869;50.990;6.962;2024-03-02T20:23:46;3.92;;;2.28;;
49978;SDS011;35869;50.990;6.962;2024-03-02T20:28:47;3.17;;;1.90;;
49978;SDS011;35869;50.990;6.962;2024-03-02T20:33:47;3.15;;;2.05;;
49978;SDS011;35869;50.990;6.962;2024-03-02T20:38:47;3.38;;;2.13;;
49978;SDS011;35869;50.990;6.962;2024-03-02T20:43:47;3.47;;;2.17;;
49978;SDS011;35869;50.990;6.962;2024-03-02T20:48:47;3.08;;;2.78;;
49978;SDS011;35869;50.990;6.962;2024-03-02T20:53:48;3.10;;;2.65;;
49978;SDS011;35869;50.990;6.962;2024-03-02T20:58:48;2.88;;;2.55;;
49978;SDS011;35869;50.990;6.962;2024-03-02T21:03:48;4.35;;;2.47;;
49978;SDS011;35869;50.990;6.962;2024-03-02T21:08:48;4.53;;;2.53;;
49978;SDS011;35869;50.990;6.962;2024-03-02T21:13:48;4.05;;;2.83;;
49978;SDS011;35869;50.990;6.962;2024-03-02T21:23:49;3.75;;;3.03;;
49978;SDS011;35869;50.990;6.962;2024-03-02T21:28:49;6.22;;;3.38;;
49978;SDS011;35869;50.990;6.962;2024-03-02T21:33:49;4.72;;;3.67;;
49978;SDS011;35869;50.990;6.962;2024-03-02T21:38:49;4.28;;;3.40;;
49978;SDS011;35869;50.990;6.962;2024-03-02T21:43:50;4.30;;;3.22;;
49978;SDS011;35869;50.990;6.962;2024-03-02T21:48:50;4.43;;;3.40;;
49978;SDS011;35869;50.990;6.962;2024-03-02T21:53:50;5.68;;;4.05;;
49978;SDS011;35869;50.990;6.962;2024-03-02T21:58:50;3.90;;;3.45;;
49978;SDS011;35869;50.990;6.962;2024-03-02T22:03:50;5.10;;;3.92;;
49978;SDS011;35869;50.990;6.962;2024-03-02T22:08:51;5.05;;;3.25;;
49978;SDS011;35869;50.990;6.962;2024-03-02T22:13:51;3.97;;;3.17;;
49978;SDS011;35869;50.990;6.962;2024-03-02T22:18:51;5.25;;;3.45;;
49978;SDS011;35869;50.990;6.962;2024-03-02T22:23:51;5.07;;;3.00;;
49978;SDS011;35869;50.990;6.962;2024-03-02T22:28:51;3.38;;;2.90;;
49978;SDS011;35869;50.990;6.962;2024-03-02T22:33:52;4.30;;;3.55;;
49978;SDS011;35869;50.990;6.962;2024-03-02T22:38:52;5.50;;;3.47;;
49978;SDS011;35869;50.990;6.962;2024-03-02T22:43:52;4.13;;;3.28;;
49978;SDS011;35869;50.990;6.962;2024-03-02T22:48:52;4.00;;;3.60;;
49978;SDS011;35869;50.990;6.962;2024-03-02T22:53:53;6.40;;;3.63;;
49978;SDS011;35869;50.990;6.962;2024-03-02T22:58:53;5.70;;;3.58;;
49978;SDS011;35869;50.990;6.962;2024-03-02T23:03:53;5.15;;;3.67;;
49978;SDS011;35869;50.990;6.962;2024-03-02T23:08:53;4.18;;;3.53;;
49978;SDS011;35869;50.990;6.962;2024-03-02T23:13:53;4.45;;;3.50;;
49978;SDS011;35869;50.990;6.962;2024-03-02T23:18:53;5.10;;;3.95;;
49978;SDS011;35869;50.990;6.962;2024-03-02T23:23:54;5.80;;;4.53;;
49978;SDS011;35869;50.990;6.962;2024-03-02T23:28:54;5.00;;;3.90;;
49978;SDS011;35869;50.990;6.962;2024-03-02T23:33:55;5.07;;;3.90;;
49978;SDS011;35869;50.990;6.962;2024-03-02T23:38:56;5.03;;;4.00;;
49978;SDS011;35869;50.990;6.962;2024-03-02T23:48:57;6.82;;;5.07;;
49978;SDS011;35869;50.990;6.962;2024-03-02T23:53:57;7.85;;;5.60;;
49978;SDS011;35869;50.990;6.962;2024-03-02T23:58:57;6.28;;;4.47;;
